Wind From: 20-06-2018 11:00 Until: 22:00 warning for: Wind Level: Yellow info button
suomi:
Tuulivaroitus maa-alueille: Länsituuli on voimakasta keskipäivästä alkaen, tuulen nopeus puuskissa 15 m/s.

svenska:
Vindvarning för landområden: Från och med middagen är den västliga vinden kraftigt, i vindbyarna 15 m/s.

english:
Wind warning for land areas: From noon on, strong winds from west may bring strong gusts of 15 m/s. 


Thunder radar more information blitzortung!


Löydät sääaseman tiedot myös:

European Weather Network

Finland Weather Exchange

Weather Underground

AWEKAS



Weather Underground säähistoriasivu

Päivittäin yhteenveto Kesäkuu 4, 2017 Yksiköt:  Metriset    Englantilaiset   Molemmat
« Edellinen Päivä
Seuraava Päivä »
Päivittäin Viikoittain Kuukausittain Vuosittain Mukautettu
  Korkea: Matala: Keskiarvo:
Lämpötila: -17.8 °C -18.6 °C -12.6 °C
Kastepiste: -17.8 °C -19.3 °C -17.6 °C
Kosteus: Humidity % 30 % 58 %
Tuulen nopeus: 0 km/h 0 km/h 2.4 km/h
Tuulenpuuska: 0 km/h - -
Tuuli:- - SSW
Ilmanpaine: 0 hPa 34073.3 hPa -
Sade: 0 mm    
Historical Graphs
 
 
Taulukkotiedot Kesäkuu 4, 2017
Aika Lämpötila Kastepiste Ilmanpaine Tuuli Tuulen nopeus Tuulenpuuska Kosteus Sademäärä (tunneittain)
-17.8 °C -17.8 °C 0 hPa Calm     Humidity % 0 mm
00:00 -15.7 °C -18 °C 34293.4 hPa Calm     74 % 0 mm
00:15 -16.1 °C -18.1 °C 34293.4 hPa Calm     77 % 0 mm
00:30 -16.3 °C -18.3 °C 34303.6 hPa Calm     78 % 0 mm
00:45 -16.7 °C -18.4 °C 34303.6 hPa Calm     80 % 0 mm
01:00 -16.9 °C -18.4 °C 34303.6 hPa Calm     82 % 0 mm
01:15 -17 °C -18.4 °C 34303.6 hPa Calm     83 % 0 mm
01:30 -17.1 °C -18.6 °C 34303.6 hPa Calm     83 % 0 mm
01:45 -17.2 °C -18.6 °C 34303.6 hPa Calm     84 % 0 mm
02:00 -17.4 °C -18.6 °C 34303.6 hPa Calm     85 % 0 mm
02:15 -17.6 °C -18.8 °C 34303.6 hPa Calm     85 % 0 mm
02:30 -17.8 °C -18.9 °C 34303.6 hPa Calm     86 % 0 mm
02:45 -17.9 °C -19 °C 34293.4 hPa Calm     87 % 0 mm
03:00 -18.1 °C -19.1 °C 34293.4 hPa Calm     87 % 0 mm
03:15 -18.2 °C -19.2 °C 34293.4 hPa Calm     88 % 0 mm
03:30 -18.3 °C -19.2 °C 34279.9 hPa Calm     89 % 0 mm
03:45 -18.3 °C -19.2 °C 34279.9 hPa Calm     89 % 0 mm
04:00 -18.4 °C -19.3 °C 34279.9 hPa Calm     89 % 0 mm
04:15 -18.5 °C -19.3 °C 34279.9 hPa Calm     90 % 0 mm
04:30 -18.6 °C -19.3 °C 34279.9 hPa Calm     90 % 0 mm
04:45 -18.6 °C -19.3 °C 34279.9 hPa Calm     91 % 0 mm
05:00 -18.6 °C -19.3 °C 34279.9 hPa Calm     91 % 0 mm
05:30 -18.4 °C -19.1 °C 34279.9 hPa Calm     91 % 0 mm
05:45 -18.2 °C -18.8 °C 34269.7 hPa Calm     92 % 0 mm
06:00 -17.9 °C -18.6 °C 34269.7 hPa Calm     92 % 0 mm
06:15 -17.6 °C -18.2 °C 34269.7 hPa Calm     92 % 0 mm
06:30 -17.1 °C -17.8 °C 34256.2 hPa Calm   7.7 km/h 91 % 0 mm
06:45 -16.4 °C -17.5 °C 34256.2 hPa Calm   5.1 km/h 87 % 0 mm
07:00 -15.8 °C -17.4 °C 34256.2 hPa Calm   7.7 km/h 82 % 0 mm
07:15 -15.4 °C -17.3 °C 34256.2 hPa Calm   2.6 km/h 78 % 0 mm
07:30 -15.1 °C -17.2 °C 34256.2 hPa Calm   5.1 km/h 76 % 0 mm
07:45 -14.7 °C -17.3 °C 34256.2 hPa Calm   7.7 km/h 72 % 0 mm
08:00 -14.4 °C -17 °C 34256.2 hPa Calm   5.1 km/h 72 % 0 mm
08:15 -14.1 °C -16.9 °C 34246 hPa SSW 2.6 km/h 10.3 km/h 70 % 0 mm
08:30 -13.8 °C -17 °C 34246 hPa South 2.6 km/h 7.7 km/h 67 % 0 mm
08:45 -13.5 °C -17.3 °C 34235.8 hPa SSW 5.1 km/h 18.2 km/h 62 % 0 mm
09:00 -13.3 °C -17.2 °C 34235.8 hPa SSW 5.1 km/h 18.2 km/h 61 % 0 mm
09:15 -12.9 °C -17.4 °C 34222.3 hPa SSE 5.1 km/h 15.6 km/h 57 % 0 mm
09:30 -12.2 °C -17.8 °C 34222.3 hPa SSW 7.7 km/h 20.8 km/h 50 % 0 mm
09:45 -11.8 °C -17.8 °C 34222.3 hPa SSW 5.1 km/h 23.3 km/h 47 % 0 mm
10:00 -11.3 °C -17.8 °C 34212.1 hPa SSW 5.1 km/h 20.8 km/h 45 % 0 mm
10:15 -11 °C -18.2 °C 34212.1 hPa SSW 10.3 km/h 25.9 km/h 41 % 0 mm
10:30 -10.6 °C -18.6 °C 34212.1 hPa SW 12.9 km/h 31.1 km/h 37 % 0 mm
10:45 -10.7 °C -18.2 °C 34198.6 hPa SSW 12.9 km/h 23.3 km/h 39 % 0 mm
11:00 -10.1 °C -18.4 °C 34198.6 hPa SW 10.3 km/h 25.9 km/h 36 % 0 mm
11:15 -9.9 °C -17.8 °C 34198.6 hPa SW 10.3 km/h 28.5 km/h 38 % 0 mm
11:30 -10.2 °C -17.6 °C 34188.4 hPa SSW 10.3 km/h 23.3 km/h 40 % 0 mm
11:45 -9.9 °C -18.8 °C 34188.4 hPa SSW 15.6 km/h 38.8 km/h 33 % 0 mm
12:00 -10 °C -18.3 °C 34188.4 hPa SSW 15.6 km/h 44.1 km/h 36 % 0 mm
12:15 -9.5 °C -17.8 °C 34178.3 hPa SSW 10.3 km/h 23.3 km/h 36 % 0 mm
12:45 -9.2 °C -17.9 °C 34178.3 hPa SSW 12.9 km/h 33.6 km/h 34 % 0 mm
13:00 -9.1 °C -17.9 °C 34164.7 hPa SW 10.3 km/h 23.3 km/h 34 % 0 mm
13:15 -9.3 °C -17.9 °C 34164.7 hPa SSW 12.9 km/h 33.6 km/h 35 % 0 mm
13:30 -9 °C -18 °C 34164.7 hPa WSW 10.3 km/h 25.9 km/h 33 % 0 mm
13:45 -8.8 °C -17.9 °C 34164.7 hPa SW 10.3 km/h 28.5 km/h 33 % 0 mm
14:00 -8.7 °C -17.3 °C 34164.7 hPa WSW 7.7 km/h 25.9 km/h 35 % 0 mm
14:15 -8.8 °C -17.2 °C 34154.6 hPa SSW 12.9 km/h 28.5 km/h 36 % 0 mm
14:30 -8.6 °C -17.4 °C 34154.6 hPa Calm     34 % 0 mm
14:45 -8.6 °C -17.2 °C 34154.6 hPa Calm     35 % 0 mm
15:00 -8.7 °C -17.3 °C 34144.4 hPa Calm     35 % 0 mm
15:15 -8.8 °C -17 °C 34144.4 hPa Calm     37 % 0 mm
15:30 -8.8 °C -17.6 °C 34144.4 hPa Calm     34 % 0 mm
15:45 -8.5 °C -17.2 °C 34130.9 hPa Calm     35 % 0 mm
16:00 -8.4 °C -17.5 °C 34130.9 hPa Calm     33 % 0 mm
16:15 -8.4 °C -17.1 °C 34130.9 hPa Calm     35 % 0 mm
16:30 -8.2 °C -17.6 °C 34120.7 hPa Calm     32 % 0 mm
16:45 -8.2 °C -17.3 °C 34120.7 hPa Calm     33 % 0 mm
17:00 -8.4 °C -17.9 °C 34120.7 hPa Calm     31 % 0 mm
17:15 -8.6 °C -18.4 °C 34120.7 hPa Calm     30 % 0 mm
17:30 -8.6 °C -17.9 °C 34107.2 hPa Calm     32 % 0 mm
17:45 -8.6 °C -18.4 °C 34107.2 hPa Calm     30 % 0 mm
18:00 -8.6 °C -17.6 °C 34107.2 hPa Calm     33 % 0 mm
18:15 -8.6 °C -17.2 °C 34107.2 hPa Calm     35 % 0 mm
18:30 -8.4 °C -16.9 °C 34097 hPa Calm     36 % 0 mm
18:45 -8.7 °C -16.9 °C 34097 hPa Calm     37 % 0 mm
19:00 -8.9 °C -16.4 °C 34097 hPa Calm     40 % 0 mm
19:15 -9.1 °C -16.4 °C 34097 hPa Calm     41 % 0 mm
19:30 -9.4 °C -16.5 °C 34097 hPa Calm     42 % 0 mm
19:45 -9.7 °C -16.2 °C 34097 hPa Calm     45 % 0 mm
20:00 -9.9 °C -16.3 °C 34097 hPa Calm     46 % 0 mm
20:15 -9.9 °C -16 °C 34097 hPa Calm     48 % 0 mm
20:30 -9.9 °C -15.8 °C 34097 hPa Calm     49 % 0 mm
20:45 -10.1 °C -15.9 °C 34086.9 hPa Calm     49 % 0 mm
21:00 -10.3 °C -15.8 °C 34086.9 hPa Calm     51 % 0 mm
21:15 -10.6 °C -15.8 °C 34086.9 hPa Calm     53 % 0 mm
21:30 -10.9 °C -15.7 °C 34097 hPa Calm     56 % 0 mm
21:45 -11.3 °C -15.7 °C 34086.9 hPa Calm     58 % 0 mm
22:00 -11.6 °C -15.7 °C 34086.9 hPa Calm     60 % 0 mm
22:15 -11.8 °C -15.9 °C 34086.9 hPa Calm     61 % 0 mm
22:30 -12.1 °C -15.7 °C 34086.9 hPa Calm     64 % 0 mm
22:45 -12.3 °C -15.8 °C 34086.9 hPa Calm     65 % 0 mm
23:00 -12.6 °C -15.7 °C 34086.9 hPa Calm     68 % 0 mm
23:15 -12.8 °C -15.8 °C 34073.3 hPa Calm     69 % 0 mm
23:30 -13 °C -15.6 °C 34073.3 hPa Calm     73 % 0 mm
23:45 -13.2 °C -15.7 °C 34073.3 hPa Calm     73 % 0 mm
Esan sääasema
Terveisin Weather Underground - 2.75 mb

Alkuperäinen skripti  Jim McMurry - jmcmurry@mwt.net Sovitettu myös templatelle  Wim van der Kuil - Leuven-Template.eu

Laitteet joita käytämme:

Sääasema
Davis VP2

Sääasemaohjelma
Cumulus

Sääaseman tietokone
Asus EeePC

Palveluntarjoaja
Suncomet

Davis VP2

Cumulus

Asus EeePC

Suncomet